sensor_id;sensor_type;location;lat;lon;timestamp;P1;durP1;ratioP1;P2;durP2;ratioP2
36725;SDS011;44936;52.086;5.150;2023-11-21T00:00:20;7.10;;;2.15;;
36725;SDS011;44936;52.086;5.150;2023-11-21T00:02:46;4.03;;;2.30;;
36725;SDS011;44936;52.086;5.150;2023-11-21T00:05:12;4.32;;;1.63;;
36725;SDS011;44936;52.086;5.150;2023-11-21T00:07:39;5.35;;;2.47;;
36725;SDS011;44936;52.086;5.150;2023-11-21T00:10:06;5.03;;;2.05;;
36725;SDS011;44936;52.086;5.150;2023-11-21T00:12:33;5.03;;;2.03;;
36725;SDS011;44936;52.086;5.150;2023-11-21T00:14:58;5.70;;;1.85;;
36725;SDS011;44936;52.086;5.150;2023-11-21T00:17:24;5.10;;;2.22;;
36725;SDS011;44936;52.086;5.150;2023-11-21T00:19:50;8.23;;;2.05;;
36725;SDS011;44936;52.086;5.150;2023-11-21T00:22:17;5.20;;;1.85;;
36725;SDS011;44936;52.086;5.150;2023-11-21T00:24:42;5.53;;;2.10;;
36725;SDS011;44936;52.086;5.150;2023-11-21T00:27:07;4.32;;;1.92;;
36725;SDS011;44936;52.086;5.150;2023-11-21T00:29:33;3.95;;;1.80;;
36725;SDS011;44936;52.086;5.150;2023-11-21T00:31:58;7.55;;;2.20;;
36725;SDS011;44936;52.086;5.150;2023-11-21T00:34:24;7.15;;;2.00;;
36725;SDS011;44936;52.086;5.150;2023-11-21T00:36:51;4.15;;;1.75;;
36725;SDS011;44936;52.086;5.150;2023-11-21T00:39:17;6.97;;;1.95;;
36725;SDS011;44936;52.086;5.150;2023-11-21T00:41:42;3.97;;;1.55;;
36725;SDS011;44936;52.086;5.150;2023-11-21T00:44:09;4.72;;;1.92;;
36725;SDS011;44936;52.086;5.150;2023-11-21T00:46:35;5.25;;;1.73;;
36725;SDS011;44936;52.086;5.150;2023-11-21T00:49:00;5.70;;;1.92;;
36725;SDS011;44936;52.086;5.150;2023-11-21T00:51:26;4.55;;;1.73;;
36725;SDS011;44936;52.086;5.150;2023-11-21T00:53:51;4.95;;;2.33;;
36725;SDS011;44936;52.086;5.150;2023-11-21T00:56:16;6.50;;;1.58;;
36725;SDS011;44936;52.086;5.150;2023-11-21T00:58:42;5.97;;;2.67;;
36725;SDS011;44936;52.086;5.150;2023-11-21T01:01:08;5.53;;;1.90;;
36725;SDS011;44936;52.086;5.150;2023-11-21T01:03:34;4.63;;;1.50;;
36725;SDS011;44936;52.086;5.150;2023-11-21T01:05:59;3.33;;;1.58;;
36725;SDS011;44936;52.086;5.150;2023-11-21T01:08:25;3.25;;;1.65;;
36725;SDS011;44936;52.086;5.150;2023-11-21T01:10:50;5.93;;;2.50;;
36725;SDS011;44936;52.086;5.150;2023-11-21T01:13:16;3.22;;;1.45;;
36725;SDS011;44936;52.086;5.150;2023-11-21T01:15:41;5.40;;;1.95;;
36725;SDS011;44936;52.086;5.150;2023-11-21T01:18:07;6.32;;;2.30;;
36725;SDS011;44936;52.086;5.150;2023-11-21T01:20:33;6.45;;;2.05;;
36725;SDS011;44936;52.086;5.150;2023-11-21T01:22:59;3.10;;;1.85;;
36725;SDS011;44936;52.086;5.150;2023-11-21T01:25:24;4.00;;;1.77;;
36725;SDS011;44936;52.086;5.150;2023-11-21T01:27:50;3.92;;;1.90;;
36725;SDS011;44936;52.086;5.150;2023-11-21T01:30:16;4.35;;;1.73;;
36725;SDS011;44936;52.086;5.150;2023-11-21T01:32:41;5.05;;;2.22;;
36725;SDS011;44936;52.086;5.150;2023-11-21T01:35:07;3.60;;;1.67;;
36725;SDS011;44936;52.086;5.150;2023-11-21T01:37:34;5.75;;;1.40;;
36725;SDS011;44936;52.086;5.150;2023-11-21T01:40:00;5.68;;;1.63;;
36725;SDS011;44936;52.086;5.150;2023-11-21T01:42:26;3.83;;;1.70;;
36725;SDS011;44936;52.086;5.150;2023-11-21T01:44:52;3.22;;;1.75;;
36725;SDS011;44936;52.086;5.150;2023-11-21T01:47:19;6.07;;;1.60;;
36725;SDS011;44936;52.086;5.150;2023-11-21T01:49:46;4.15;;;1.90;;
36725;SDS011;44936;52.086;5.150;2023-11-21T01:52:12;8.07;;;2.20;;
36725;SDS011;44936;52.086;5.150;2023-11-21T01:54:38;8.10;;;2.08;;
36725;SDS011;44936;52.086;5.150;2023-11-21T01:57:04;4.35;;;1.80;;
36725;SDS011;44936;52.086;5.150;2023-11-21T01:59:33;4.75;;;1.95;;
36725;SDS011;44936;52.086;5.150;2023-11-21T02:02:01;4.72;;;1.90;;
36725;SDS011;44936;52.086;5.150;2023-11-21T02:04:27;8.25;;;2.20;;
36725;SDS011;44936;52.086;5.150;2023-11-21T02:06:52;6.72;;;2.03;;
36725;SDS011;44936;52.086;5.150;2023-11-21T02:09:22;5.53;;;1.90;;
36725;SDS011;44936;52.086;5.150;2023-11-21T02:11:50;6.22;;;1.88;;
36725;SDS011;44936;52.086;5.150;2023-11-21T02:14:16;8.35;;;1.95;;
36725;SDS011;44936;52.086;5.150;2023-11-21T02:16:45;7.93;;;2.30;;
36725;SDS011;44936;52.086;5.150;2023-11-21T02:19:12;8.05;;;2.33;;
36725;SDS011;44936;52.086;5.150;2023-11-21T02:21:44;3.90;;;1.60;;
36725;SDS011;44936;52.086;5.150;2023-11-21T02:24:11;9.15;;;2.20;;
36725;SDS011;44936;52.086;5.150;2023-11-21T02:26:36;6.32;;;1.90;;
36725;SDS011;44936;52.086;5.150;2023-11-21T02:29:02;5.00;;;2.15;;
36725;SDS011;44936;52.086;5.150;2023-11-21T02:31:29;5.03;;;2.00;;
36725;SDS011;44936;52.086;5.150;2023-11-21T02:33:55;6.40;;;2.03;;
36725;SDS011;44936;52.086;5.150;2023-11-21T02:36:20;8.20;;;2.08;;
36725;SDS011;44936;52.086;5.150;2023-11-21T02:38:46;7.85;;;2.20;;
36725;SDS011;44936;52.086;5.150;2023-11-21T02:41:12;5.95;;;1.90;;
36725;SDS011;44936;52.086;5.150;2023-11-21T02:43:38;10.70;;;2.22;;
36725;SDS011;44936;52.086;5.150;2023-11-21T02:46:03;3.85;;;1.65;;
36725;SDS011;44936;52.086;5.150;2023-11-21T02:48:29;4.97;;;2.22;;
36725;SDS011;44936;52.086;5.150;2023-11-21T02:50:55;7.60;;;2.05;;
36725;SDS011;44936;52.086;5.150;2023-11-21T02:53:21;5.35;;;2.28;;
36725;SDS011;44936;52.086;5.150;2023-11-21T02:55:46;5.85;;;1.85;;
36725;SDS011;44936;52.086;5.150;2023-11-21T02:58:11;6.28;;;2.08;;
36725;SDS011;44936;52.086;5.150;2023-11-21T03:00:36;9.07;;;2.20;;
36725;SDS011;44936;52.086;5.150;2023-11-21T03:03:02;6.13;;;2.33;;
36725;SDS011;44936;52.086;5.150;2023-11-21T03:05:29;4.68;;;1.75;;
36725;SDS011;44936;52.086;5.150;2023-11-21T03:07:54;4.38;;;1.77;;
36725;SDS011;44936;52.086;5.150;2023-11-21T03:10:20;9.18;;;2.33;;
36725;SDS011;44936;52.086;5.150;2023-11-21T03:12:45;7.72;;;2.33;;
36725;SDS011;44936;52.086;5.150;2023-11-21T03:15:11;4.97;;;2.05;;
36725;SDS011;44936;52.086;5.150;2023-11-21T03:17:36;4.53;;;2.00;;
36725;SDS011;44936;52.086;5.150;2023-11-21T03:20:02;5.22;;;2.13;;
36725;SDS011;44936;52.086;5.150;2023-11-21T03:22:28;5.57;;;2.10;;
36725;SDS011;44936;52.086;5.150;2023-11-21T03:24:54;4.95;;;1.95;;
36725;SDS011;44936;52.086;5.150;2023-11-21T03:27:19;4.00;;;2.00;;
36725;SDS011;44936;52.086;5.150;2023-11-21T03:29:45;3.13;;;1.48;;
36725;SDS011;44936;52.086;5.150;2023-11-21T03:32:11;9.35;;;1.95;;
36725;SDS011;44936;52.086;5.150;2023-11-21T03:34:52;5.85;;;1.83;;
36725;SDS011;44936;52.086;5.150;2023-11-21T03:37:18;6.15;;;2.00;;
36725;SDS011;44936;52.086;5.150;2023-11-21T03:39:45;3.65;;;1.70;;
36725;SDS011;44936;52.086;5.150;2023-11-21T03:42:11;4.18;;;1.83;;
36725;SDS011;44936;52.086;5.150;2023-11-21T03:44:36;4.20;;;2.05;;
36725;SDS011;44936;52.086;5.150;2023-11-21T03:47:02;9.00;;;1.83;;
36725;SDS011;44936;52.086;5.150;2023-11-21T03:49:27;5.80;;;2.20;;
36725;SDS011;44936;52.086;5.150;2023-11-21T03:51:54;4.43;;;1.75;;
36725;SDS011;44936;52.086;5.150;2023-11-21T03:54:19;5.22;;;1.95;;
36725;SDS011;44936;52.086;5.150;2023-11-21T03:56:45;3.78;;;1.65;;
36725;SDS011;44936;52.086;5.150;2023-11-21T03:59:10;5.07;;;1.90;;
36725;SDS011;44936;52.086;5.150;2023-11-21T04:01:36;5.65;;;1.80;;
36725;SDS011;44936;52.086;5.150;2023-11-21T04:04:01;5.03;;;1.90;;
36725;SDS011;44936;52.086;5.150;2023-11-21T04:06:27;7.90;;;2.30;;
36725;SDS011;44936;52.086;5.150;2023-11-21T04:08:52;6.93;;;2.30;;
36725;SDS011;44936;52.086;5.150;2023-11-21T04:11:18;4.28;;;1.60;;
36725;SDS011;44936;52.086;5.150;2023-11-21T04:13:43;4.85;;;1.75;;
36725;SDS011;44936;52.086;5.150;2023-11-21T04:16:09;7.38;;;2.08;;
36725;SDS011;44936;52.086;5.150;2023-11-21T04:18:37;3.47;;;1.65;;
36725;SDS011;44936;52.086;5.150;2023-11-21T04:21:04;4.47;;;1.60;;
36725;SDS011;44936;52.086;5.150;2023-11-21T04:23:30;4.85;;;2.05;;
36725;SDS011;44936;52.086;5.150;2023-11-21T04:25:58;3.40;;;1.50;;
36725;SDS011;44936;52.086;5.150;2023-11-21T04:28:23;5.10;;;2.10;;
36725;SDS011;44936;52.086;5.150;2023-11-21T04:30:49;7.60;;;1.92;;
36725;SDS011;44936;52.086;5.150;2023-11-21T04:33:15;5.20;;;2.00;;
36725;SDS011;44936;52.086;5.150;2023-11-21T04:35:41;6.50;;;2.10;;
36725;SDS011;44936;52.086;5.150;2023-11-21T04:38:06;8.82;;;2.28;;
36725;SDS011;44936;52.086;5.150;2023-11-21T04:40:31;4.40;;;2.10;;
36725;SDS011;44936;52.086;5.150;2023-11-21T04:42:57;5.45;;;2.00;;
36725;SDS011;44936;52.086;5.150;2023-11-21T04:45:22;6.20;;;1.88;;
36725;SDS011;44936;52.086;5.150;2023-11-21T04:47:48;6.38;;;2.15;;
36725;SDS011;44936;52.086;5.150;2023-11-21T04:50:13;7.43;;;1.70;;
36725;SDS011;44936;52.086;5.150;2023-11-21T04:52:38;3.00;;;1.50;;
36725;SDS011;44936;52.086;5.150;2023-11-21T04:55:04;6.38;;;2.28;;
36725;SDS011;44936;52.086;5.150;2023-11-21T04:57:31;4.00;;;1.83;;
36725;SDS011;44936;52.086;5.150;2023-11-21T04:59:57;5.60;;;1.63;;
36725;SDS011;44936;52.086;5.150;2023-11-21T05:02:22;3.47;;;1.65;;
36725;SDS011;44936;52.086;5.150;2023-11-21T05:04:48;6.57;;;2.03;;
36725;SDS011;44936;52.086;5.150;2023-11-21T05:07:13;6.03;;;1.80;;
36725;SDS011;44936;52.086;5.150;2023-11-21T05:09:42;2.90;;;1.55;;
36725;SDS011;44936;52.086;5.150;2023-11-21T05:12:09;5.75;;;2.08;;
36725;SDS011;44936;52.086;5.150;2023-11-21T05:14:35;4.88;;;2.03;;
36725;SDS011;44936;52.086;5.150;2023-11-21T05:17:00;4.40;;;1.73;;
36725;SDS011;44936;52.086;5.150;2023-11-21T05:19:26;5.13;;;1.60;;
36725;SDS011;44936;52.086;5.150;2023-11-21T05:21:52;5.85;;;1.73;;
36725;SDS011;44936;52.086;5.150;2023-11-21T05:24:17;4.22;;;1.80;;
36725;SDS011;44936;52.086;5.150;2023-11-21T05:26:42;4.90;;;1.70;;
36725;SDS011;44936;52.086;5.150;2023-11-21T05:29:08;3.65;;;1.40;;
36725;SDS011;44936;52.086;5.150;2023-11-21T05:31:35;3.22;;;1.55;;
36725;SDS011;44936;52.086;5.150;2023-11-21T05:34:00;4.45;;;2.08;;
36725;SDS011;44936;52.086;5.150;2023-11-21T05:36:25;5.20;;;2.38;;
36725;SDS011;44936;52.086;5.150;2023-11-21T05:38:50;5.35;;;1.83;;
36725;SDS011;44936;52.086;5.150;2023-11-21T05:41:16;4.50;;;1.58;;
36725;SDS011;44936;52.086;5.150;2023-11-21T05:43:41;5.68;;;2.15;;
36725;SDS011;44936;52.086;5.150;2023-11-21T05:46:07;5.47;;;2.00;;
36725;SDS011;44936;52.086;5.150;2023-11-21T05:48:33;4.45;;;2.10;;
36725;SDS011;44936;52.086;5.150;2023-11-21T05:51:01;4.22;;;1.70;;
36725;SDS011;44936;52.086;5.150;2023-11-21T05:53:29;5.20;;;2.63;;
36725;SDS011;44936;52.086;5.150;2023-11-21T05:55:54;4.47;;;1.85;;
36725;SDS011;44936;52.086;5.150;2023-11-21T05:58:20;5.70;;;2.42;;
36725;SDS011;44936;52.086;5.150;2023-11-21T06:00:45;3.13;;;1.42;;
36725;SDS011;44936;52.086;5.150;2023-11-21T06:03:10;4.75;;;1.73;;
36725;SDS011;44936;52.086;5.150;2023-11-21T06:05:36;5.72;;;2.35;;
36725;SDS011;44936;52.086;5.150;2023-11-21T06:08:01;4.93;;;1.90;;
36725;SDS011;44936;52.086;5.150;2023-11-21T06:10:27;6.55;;;1.80;;
36725;SDS011;44936;52.086;5.150;2023-11-21T06:12:53;6.30;;;1.70;;
36725;SDS011;44936;52.086;5.150;2023-11-21T06:15:18;6.80;;;2.20;;
36725;SDS011;44936;52.086;5.150;2023-11-21T06:17:45;5.65;;;2.33;;
36725;SDS011;44936;52.086;5.150;2023-11-21T06:20:14;7.35;;;2.10;;
36725;SDS011;44936;52.086;5.150;2023-11-21T06:22:41;7.20;;;2.13;;
36725;SDS011;44936;52.086;5.150;2023-11-21T06:25:08;6.93;;;2.20;;
36725;SDS011;44936;52.086;5.150;2023-11-21T06:27:44;7.63;;;2.15;;
36725;SDS011;44936;52.086;5.150;2023-11-21T06:30:10;5.70;;;1.85;;
36725;SDS011;44936;52.086;5.150;2023-11-21T06:32:37;4.55;;;1.98;;
36725;SDS011;44936;52.086;5.150;2023-11-21T06:35:04;6.65;;;1.73;;
36725;SDS011;44936;52.086;5.150;2023-11-21T06:37:31;6.35;;;2.10;;
36725;SDS011;44936;52.086;5.150;2023-11-21T06:39:57;5.68;;;2.00;;
36725;SDS011;44936;52.086;5.150;2023-11-21T06:42:24;6.65;;;2.08;;
36725;SDS011;44936;52.086;5.150;2023-11-21T06:44:50;6.55;;;1.75;;
36725;SDS011;44936;52.086;5.150;2023-11-21T06:47:22;6.63;;;2.22;;
36725;SDS011;44936;52.086;5.150;2023-11-21T06:49:51;5.05;;;2.03;;
36725;SDS011;44936;52.086;5.150;2023-11-21T06:52:18;6.07;;;2.55;;
36725;SDS011;44936;52.086;5.150;2023-11-21T06:54:43;9.63;;;2.20;;
36725;SDS011;44936;52.086;5.150;2023-11-21T06:57:10;3.78;;;1.77;;
36725;SDS011;44936;52.086;5.150;2023-11-21T06:59:35;5.03;;;2.00;;
36725;SDS011;44936;52.086;5.150;2023-11-21T07:02:01;5.50;;;1.70;;
36725;SDS011;44936;52.086;5.150;2023-11-21T07:04:27;6.28;;;1.60;;
36725;SDS011;44936;52.086;5.150;2023-11-21T07:06:55;5.47;;;2.10;;
36725;SDS011;44936;52.086;5.150;2023-11-21T07:09:21;8.73;;;2.45;;
36725;SDS011;44936;52.086;5.150;2023-11-21T07:11:47;4.13;;;1.58;;
36725;SDS011;44936;52.086;5.150;2023-11-21T07:14:13;5.47;;;2.05;;
36725;SDS011;44936;52.086;5.150;2023-11-21T07:16:39;3.55;;;1.70;;
36725;SDS011;44936;52.086;5.150;2023-11-21T07:19:05;6.32;;;1.77;;
36725;SDS011;44936;52.086;5.150;2023-11-21T07:21:33;5.38;;;1.60;;
36725;SDS011;44936;52.086;5.150;2023-11-21T07:23:59;4.38;;;1.92;;
36725;SDS011;44936;52.086;5.150;2023-11-21T07:26:26;4.80;;;1.63;;
36725;SDS011;44936;52.086;5.150;2023-11-21T07:28:51;6.15;;;2.15;;
36725;SDS011;44936;52.086;5.150;2023-11-21T07:31:17;5.40;;;2.30;;
36725;SDS011;44936;52.086;5.150;2023-11-21T07:33:42;3.33;;;1.63;;
36725;SDS011;44936;52.086;5.150;2023-11-21T07:36:08;5.05;;;1.80;;
36725;SDS011;44936;52.086;5.150;2023-11-21T07:38:33;4.57;;;1.80;;
36725;SDS011;44936;52.086;5.150;2023-11-21T07:40:59;4.35;;;1.60;;
36725;SDS011;44936;52.086;5.150;2023-11-21T07:43:26;4.47;;;1.48;;
36725;SDS011;44936;52.086;5.150;2023-11-21T07:45:52;4.57;;;1.70;;
36725;SDS011;44936;52.086;5.150;2023-11-21T07:48:17;4.57;;;1.50;;
36725;SDS011;44936;52.086;5.150;2023-11-21T07:50:42;4.03;;;1.58;;
36725;SDS011;44936;52.086;5.150;2023-11-21T07:53:08;4.63;;;1.70;;
36725;SDS011;44936;52.086;5.150;2023-11-21T07:55:34;5.78;;;2.00;;
36725;SDS011;44936;52.086;5.150;2023-11-21T07:58:01;3.08;;;1.23;;
36725;SDS011;44936;52.086;5.150;2023-11-21T08:00:26;4.13;;;1.23;;
36725;SDS011;44936;52.086;5.150;2023-11-21T08:02:55;6.65;;;1.55;;
36725;SDS011;44936;52.086;5.150;2023-11-21T08:05:20;5.30;;;1.20;;
36725;SDS011;44936;52.086;5.150;2023-11-21T08:07:45;5.13;;;1.40;;
36725;SDS011;44936;52.086;5.150;2023-11-21T08:10:11;4.18;;;1.77;;
36725;SDS011;44936;52.086;5.150;2023-11-21T08:12:36;1.70;;;0.93;;
36725;SDS011;44936;52.086;5.150;2023-11-21T08:15:01;2.60;;;1.25;;
36725;SDS011;44936;52.086;5.150;2023-11-21T08:17:28;2.83;;;0.82;;
36725;SDS011;44936;52.086;5.150;2023-11-21T08:19:54;1.88;;;1.17;;
36725;SDS011;44936;52.086;5.150;2023-11-21T08:22:19;2.25;;;0.90;;
36725;SDS011;44936;52.086;5.150;2023-11-21T08:24:45;1.70;;;0.90;;
36725;SDS011;44936;52.086;5.150;2023-11-21T08:27:11;3.42;;;1.23;;
36725;SDS011;44936;52.086;5.150;2023-11-21T08:29:37;2.70;;;0.90;;
36725;SDS011;44936;52.086;5.150;2023-11-21T08:32:02;2.33;;;0.95;;
36725;SDS011;44936;52.086;5.150;2023-11-21T08:34:28;2.00;;;1.00;;
36725;SDS011;44936;52.086;5.150;2023-11-21T08:36:54;2.33;;;1.02;;
36725;SDS011;44936;52.086;5.150;2023-11-21T08:39:20;3.85;;;1.20;;
36725;SDS011;44936;52.086;5.150;2023-11-21T08:41:49;2.90;;;1.20;;
36725;SDS011;44936;52.086;5.150;2023-11-21T08:44:15;2.58;;;1.23;;
36725;SDS011;44936;52.086;5.150;2023-11-21T08:46:42;3.50;;;1.30;;
36725;SDS011;44936;52.086;5.150;2023-11-21T08:49:10;4.47;;;1.42;;
36725;SDS011;44936;52.086;5.150;2023-11-21T08:51:36;3.67;;;1.52;;
36725;SDS011;44936;52.086;5.150;2023-11-21T08:54:02;3.85;;;1.02;;
36725;SDS011;44936;52.086;5.150;2023-11-21T08:56:29;1.98;;;1.05;;
36725;SDS011;44936;52.086;5.150;2023-11-21T08:58:55;2.63;;;1.25;;
36725;SDS011;44936;52.086;5.150;2023-11-21T09:01:22;3.70;;;1.30;;
36725;SDS011;44936;52.086;5.150;2023-11-21T09:03:48;3.13;;;1.20;;
36725;SDS011;44936;52.086;5.150;2023-11-21T09:06:15;3.35;;;1.10;;
36725;SDS011;44936;52.086;5.150;2023-11-21T09:08:40;5.07;;;1.17;;
36725;SDS011;44936;52.086;5.150;2023-11-21T09:11:06;4.85;;;1.55;;
36725;SDS011;44936;52.086;5.150;2023-11-21T09:13:33;3.88;;;1.15;;
36725;SDS011;44936;52.086;5.150;2023-11-21T09:15:58;8.07;;;1.73;;
36725;SDS011;44936;52.086;5.150;2023-11-21T09:18:23;6.80;;;1.65;;
36725;SDS011;44936;52.086;5.150;2023-11-21T09:20:49;5.57;;;1.83;;
36725;SDS011;44936;52.086;5.150;2023-11-21T09:23:14;5.45;;;1.50;;
36725;SDS011;44936;52.086;5.150;2023-11-21T09:25:39;5.28;;;1.60;;
36725;SDS011;44936;52.086;5.150;2023-11-21T09:28:05;5.70;;;1.50;;
36725;SDS011;44936;52.086;5.150;2023-11-21T09:30:36;3.72;;;1.35;;
36725;SDS011;44936;52.086;5.150;2023-11-21T09:33:02;2.80;;;1.45;;
36725;SDS011;44936;52.086;5.150;2023-11-21T09:35:27;6.55;;;1.73;;
36725;SDS011;44936;52.086;5.150;2023-11-21T09:37:53;4.22;;;1.42;;
36725;SDS011;44936;52.086;5.150;2023-11-21T09:40:20;4.18;;;1.67;;
36725;SDS011;44936;52.086;5.150;2023-11-21T09:42:56;4.25;;;1.35;;
36725;SDS011;44936;52.086;5.150;2023-11-21T09:45:28;6.35;;;1.80;;
36725;SDS011;44936;52.086;5.150;2023-11-21T09:47:56;6.95;;;1.50;;
36725;SDS011;44936;52.086;5.150;2023-11-21T09:50:22;3.17;;;1.50;;
36725;SDS011;44936;52.086;5.150;2023-11-21T09:55:19;3.83;;;1.65;;
36725;SDS011;44936;52.086;5.150;2023-11-21T09:57:47;5.28;;;1.67;;
36725;SDS011;44936;52.086;5.150;2023-11-21T10:00:14;4.00;;;1.55;;
36725;SDS011;44936;52.086;5.150;2023-11-21T10:02:42;5.22;;;1.50;;
36725;SDS011;44936;52.086;5.150;2023-11-21T10:05:08;2.88;;;1.23;;
36725;SDS011;44936;52.086;5.150;2023-11-21T10:07:36;5.65;;;1.65;;
36725;SDS011;44936;52.086;5.150;2023-11-21T10:10:04;3.92;;;1.50;;
36725;SDS011;44936;52.086;5.150;2023-11-21T10:12:30;3.55;;;1.40;;
36725;SDS011;44936;52.086;5.150;2023-11-21T10:14:57;5.65;;;1.60;;
36725;SDS011;44936;52.086;5.150;2023-11-21T10:17:25;4.32;;;1.52;;
36725;SDS011;44936;52.086;5.150;2023-11-21T10:19:55;3.05;;;1.38;;
36725;SDS011;44936;52.086;5.150;2023-11-21T10:22:22;3.47;;;1.20;;
36725;SDS011;44936;52.086;5.150;2023-11-21T10:24:48;2.95;;;1.30;;
36725;SDS011;44936;52.086;5.150;2023-11-21T10:27:13;2.30;;;1.05;;
36725;SDS011;44936;52.086;5.150;2023-11-21T10:29:39;3.55;;;1.10;;
36725;SDS011;44936;52.086;5.150;2023-11-21T10:32:04;4.60;;;1.60;;
36725;SDS011;44936;52.086;5.150;2023-11-21T10:34:30;3.50;;;1.13;;
36725;SDS011;44936;52.086;5.150;2023-11-21T10:36:56;4.93;;;1.20;;
36725;SDS011;44936;52.086;5.150;2023-11-21T10:39:23;3.55;;;1.10;;
36725;SDS011;44936;52.086;5.150;2023-11-21T10:41:52;3.10;;;1.30;;
36725;SDS011;44936;52.086;5.150;2023-11-21T10:44:18;4.00;;;1.00;;
36725;SDS011;44936;52.086;5.150;2023-11-21T10:46:49;3.63;;;1.85;;
36725;SDS011;44936;52.086;5.150;2023-11-21T10:49:18;4.22;;;1.35;;
36725;SDS011;44936;52.086;5.150;2023-11-21T10:51:45;3.78;;;1.13;;
36725;SDS011;44936;52.086;5.150;2023-11-21T10:54:10;2.72;;;1.25;;
36725;SDS011;44936;52.086;5.150;2023-11-21T10:56:37;2.67;;;0.90;;
36725;SDS011;44936;52.086;5.150;2023-11-21T10:59:07;4.15;;;0.98;;
36725;SDS011;44936;52.086;5.150;2023-11-21T11:01:36;5.57;;;1.33;;
36725;SDS011;44936;52.086;5.150;2023-11-21T11:04:02;5.05;;;1.00;;
36725;SDS011;44936;52.086;5.150;2023-11-21T11:06:31;3.20;;;1.30;;
36725;SDS011;44936;52.086;5.150;2023-11-21T11:08:57;3.10;;;1.15;;
36725;SDS011;44936;52.086;5.150;2023-11-21T11:11:25;3.35;;;1.23;;
36725;SDS011;44936;52.086;5.150;2023-11-21T11:13:50;3.80;;;1.10;;
36725;SDS011;44936;52.086;5.150;2023-11-21T11:16:18;1.98;;;1.00;;
36725;SDS011;44936;52.086;5.150;2023-11-21T11:18:44;5.00;;;1.67;;
36725;SDS011;44936;52.086;5.150;2023-11-21T11:21:19;5.55;;;1.55;;
36725;SDS011;44936;52.086;5.150;2023-11-21T11:24:11;3.60;;;1.27;;
36725;SDS011;44936;52.086;5.150;2023-11-21T11:32:19;3.73;;;1.40;;
36725;SDS011;44936;52.086;5.150;2023-11-21T11:34:57;2.53;;;1.33;;
36725;SDS011;44936;52.086;5.150;2023-11-21T11:37:29;6.85;;;2.30;;
36725;SDS011;44936;52.086;5.150;2023-11-21T11:39:54;4.15;;;1.90;;
36725;SDS011;44936;52.086;5.150;2023-11-21T11:42:20;4.47;;;1.70;;
36725;SDS011;44936;52.086;5.150;2023-11-21T11:44:47;5.00;;;1.67;;
36725;SDS011;44936;52.086;5.150;2023-11-21T11:47:18;4.97;;;1.63;;
36725;SDS011;44936;52.086;5.150;2023-11-21T11:49:56;3.15;;;1.55;;
36725;SDS011;44936;52.086;5.150;2023-11-21T11:52:34;4.78;;;1.55;;
36725;SDS011;44936;52.086;5.150;2023-11-21T11:55:07;6.93;;;2.00;;
36725;SDS011;44936;52.086;5.150;2023-11-21T11:57:38;7.03;;;1.83;;
36725;SDS011;44936;52.086;5.150;2023-11-21T12:00:12;4.90;;;1.75;;
36725;SDS011;44936;52.086;5.150;2023-11-21T12:02:41;7.82;;;2.13;;
36725;SDS011;44936;52.086;5.150;2023-11-21T12:05:09;7.68;;;2.22;;
36725;SDS011;44936;52.086;5.150;2023-11-21T12:10:13;7.00;;;2.25;;
36725;SDS011;44936;52.086;5.150;2023-11-21T12:12:50;6.25;;;1.98;;
36725;SDS011;44936;52.086;5.150;2023-11-21T12:15:17;10.07;;;2.25;;
36725;SDS011;44936;52.086;5.150;2023-11-21T12:17:43;5.13;;;2.17;;
36725;SDS011;44936;52.086;5.150;2023-11-21T12:20:10;9.35;;;1.83;;
36725;SDS011;44936;52.086;5.150;2023-11-21T12:22:43;7.45;;;1.95;;
36725;SDS011;44936;52.086;5.150;2023-11-21T12:25:09;6.55;;;2.22;;
36725;SDS011;44936;52.086;5.150;2023-11-21T12:27:37;7.13;;;2.08;;
36725;SDS011;44936;52.086;5.150;2023-11-21T12:30:03;6.80;;;2.17;;
36725;SDS011;44936;52.086;5.150;2023-11-21T12:32:29;3.53;;;1.80;;
36725;SDS011;44936;52.086;5.150;2023-11-21T12:34:55;7.47;;;2.40;;
36725;SDS011;44936;52.086;5.150;2023-11-21T12:37:20;6.35;;;2.05;;
36725;SDS011;44936;52.086;5.150;2023-11-21T12:39:47;7.07;;;2.15;;
36725;SDS011;44936;52.086;5.150;2023-11-21T12:42:12;7.55;;;1.80;;
36725;SDS011;44936;52.086;5.150;2023-11-21T12:44:38;5.75;;;2.08;;
36725;SDS011;44936;52.086;5.150;2023-11-21T12:47:06;7.80;;;2.13;;
36725;SDS011;44936;52.086;5.150;2023-11-21T12:49:31;6.43;;;2.33;;
36725;SDS011;44936;52.086;5.150;2023-11-21T12:51:59;12.85;;;2.88;;
36725;SDS011;44936;52.086;5.150;2023-11-21T12:54:24;5.90;;;2.40;;
36725;SDS011;44936;52.086;5.150;2023-11-21T12:56:49;6.22;;;2.30;;
36725;SDS011;44936;52.086;5.150;2023-11-21T12:59:15;8.80;;;2.70;;
36725;SDS011;44936;52.086;5.150;2023-11-21T13:01:43;8.48;;;2.40;;
36725;SDS011;44936;52.086;5.150;2023-11-21T13:04:08;7.13;;;2.20;;
36725;SDS011;44936;52.086;5.150;2023-11-21T13:06:35;7.70;;;2.10;;
36725;SDS011;44936;52.086;5.150;2023-11-21T13:09:06;9.43;;;3.05;;
36725;SDS011;44936;52.086;5.150;2023-11-21T13:11:35;7.80;;;2.20;;
36725;SDS011;44936;52.086;5.150;2023-11-21T13:14:01;7.85;;;2.17;;
36725;SDS011;44936;52.086;5.150;2023-11-21T13:16:28;6.00;;;2.13;;
36725;SDS011;44936;52.086;5.150;2023-11-21T13:18:55;5.57;;;1.85;;
36725;SDS011;44936;52.086;5.150;2023-11-21T13:21:20;8.77;;;2.25;;
36725;SDS011;44936;52.086;5.150;2023-11-21T13:23:47;8.20;;;2.22;;
36725;SDS011;44936;52.086;5.150;2023-11-21T13:26:15;5.78;;;2.00;;
36725;SDS011;44936;52.086;5.150;2023-11-21T13:28:40;4.45;;;1.60;;
36725;SDS011;44936;52.086;5.150;2023-11-21T13:31:10;5.20;;;2.13;;
36725;SDS011;44936;52.086;5.150;2023-11-21T13:33:46;5.57;;;2.05;;
36725;SDS011;44936;52.086;5.150;2023-11-21T13:36:19;5.03;;;1.50;;
36725;SDS011;44936;52.086;5.150;2023-11-21T13:38:47;3.90;;;1.63;;
36725;SDS011;44936;52.086;5.150;2023-11-21T13:41:14;4.32;;;1.20;;
36725;SDS011;44936;52.086;5.150;2023-11-21T13:43:39;4.78;;;1.30;;
36725;SDS011;44936;52.086;5.150;2023-11-21T13:46:08;2.63;;;0.90;;
36725;SDS011;44936;52.086;5.150;2023-11-21T13:48:46;3.83;;;1.35;;
36725;SDS011;44936;52.086;5.150;2023-11-21T13:51:21;2.30;;;0.82;;
36725;SDS011;44936;52.086;5.150;2023-11-21T13:54:01;2.42;;;1.00;;
36725;SDS011;44936;52.086;5.150;2023-11-21T13:56:27;3.17;;;0.93;;
36725;SDS011;44936;52.086;5.150;2023-11-21T13:58:54;2.05;;;0.93;;
36725;SDS011;44936;52.086;5.150;2023-11-21T14:01:21;2.47;;;0.88;;
36725;SDS011;44936;52.086;5.150;2023-11-21T14:03:54;1.30;;;0.70;;
36725;SDS011;44936;52.086;5.150;2023-11-21T14:06:45;2.75;;;0.88;;
36725;SDS011;44936;52.086;5.150;2023-11-21T14:09:18;2.47;;;0.80;;
36725;SDS011;44936;52.086;5.150;2023-11-21T14:11:51;2.38;;;0.98;;
36725;SDS011;44936;52.086;5.150;2023-11-21T14:14:19;3.03;;;0.80;;
36725;SDS011;44936;52.086;5.150;2023-11-21T14:16:45;4.70;;;1.30;;
36725;SDS011;44936;52.086;5.150;2023-11-21T14:19:10;3.75;;;1.10;;
36725;SDS011;44936;52.086;5.150;2023-11-21T14:21:41;3.70;;;1.20;;
36725;SDS011;44936;52.086;5.150;2023-11-21T14:24:09;4.28;;;1.40;;
36725;SDS011;44936;52.086;5.150;2023-11-21T14:26:35;5.25;;;1.80;;
36725;SDS011;44936;52.086;5.150;2023-11-21T14:29:00;5.18;;;1.52;;
36725;SDS011;44936;52.086;5.150;2023-11-21T14:31:27;5.40;;;1.58;;
36725;SDS011;44936;52.086;5.150;2023-11-21T14:33:55;6.05;;;1.90;;
36725;SDS011;44936;52.086;5.150;2023-11-21T14:36:20;9.82;;;2.42;;
36725;SDS011;44936;52.086;5.150;2023-11-21T14:38:46;7.90;;;2.47;;
36725;SDS011;44936;52.086;5.150;2023-11-21T14:41:11;8.57;;;2.25;;
36725;SDS011;44936;52.086;5.150;2023-11-21T14:43:38;7.28;;;2.17;;
36725;SDS011;44936;52.086;5.150;2023-11-21T14:46:04;6.88;;;2.28;;
36725;SDS011;44936;52.086;5.150;2023-11-21T14:48:33;7.93;;;2.42;;
36725;SDS011;44936;52.086;5.150;2023-11-21T14:51:08;10.63;;;3.33;;
36725;SDS011;44936;52.086;5.150;2023-11-21T14:53:52;9.02;;;3.08;;
36725;SDS011;44936;52.086;5.150;2023-11-21T14:56:19;9.50;;;2.65;;